Time;durP1;ratioP1;P1;durP2;ratioP2;P2;SDS_P1;SDS_P2;PMS_P1;PMS_P2;Temp;Humidity;BMP_temperature;BMP_pressure;BME280_temperature;BME280_humidity;BME280_pressure;Samples;Min_cycle;Max_cycle;Signal;HPM_P1;HPM_P2
2022/09/04 00:02:07;;;;;;;1.13;1.13;;;;;;;;;;4986005;28;20200;-41
2022/09/04 00:04:38;;;;;;;3.90;1.37;;;;;;;;;;4992121;28;20206;-42
2022/09/04 00:07:09;;;;;;;1.23;1.13;;;;;;;;;;4986297;28;20320;-44
2022/09/04 00:09:41;;;;;;;2.20;1.00;;;;;;;;;;4986324;28;20205;-44
2022/09/04 00:12:09;;;;;;;1.30;1.20;;;;;;;;;;4993772;28;20259;-39
2022/09/04 00:14:41;;;;;;;1.43;1.33;;;;;;;;;;4991521;28;20206;-43
2022/09/04 00:17:12;;;;;;;1.67;1.33;;;;;;;;;;4988190;28;20299;-44
2022/09/04 00:19:42;;;;;;;1.60;1.30;;;;;;;;;;4992928;28;20209;-42
2022/09/04 00:22:15;;;;;;;2.40;1.30;;;;;;;;;;4991949;28;20213;-40
2022/09/04 00:24:43;;;;;;;1.37;1.20;;;;;;;;;;4983386;28;20241;-44
2022/09/04 00:27:13;;;;;;;3.23;1.30;;;;;;;;;;4988854;28;20235;-44
2022/09/04 00:29:44;;;;;;;1.20;1.10;;;;;;;;;;4987042;28;20241;-40
2022/09/04 00:32:18;;;;;;;1.33;1.10;;;;;;;;;;4986368;28;20235;-44
2022/09/04 00:34:53;;;;;;;1.50;1.40;;;;;;;;;;4991047;28;20257;-41
2022/09/04 00:37:23;;;;;;;1.20;1.20;;;;;;;;;;4987951;28;20236;-41
2022/09/04 00:39:54;;;;;;;1.37;1.27;;;;;;;;;;4991160;28;20223;-36
2022/09/04 00:42:34;;;;;;;2.83;1.27;;;;;;;;;;4991145;28;20204;-43
2022/09/04 00:45:06;;;;;;;3.27;1.40;;;;;;;;;;4978087;28;20214;-40
2022/09/04 00:47:43;;;;;;;2.13;1.00;;;;;;;;;;4983455;28;20233;-40
2022/09/04 00:50:21;;;;;;;0.90;0.90;;;;;;;;;;4991150;28;20204;-42
2022/09/04 00:53:05;;;;;;;1.43;1.33;;;;;;;;;;4984918;28;20224;-41
2022/09/04 00:55:45;;;;;;;1.47;1.00;;;;;;;;;;4984838;28;20212;-42
2022/09/04 00:58:20;;;;;;;1.70;1.23;;;;;;;;;;4990468;28;20267;-43
2022/09/04 01:00:48;;;;;;;4.13;1.30;;;;;;;;;;4979187;28;20236;-34
2022/09/04 01:03:31;;;;;;;7.83;1.77;;;;;;;;;;4974347;28;20206;-40
2022/09/04 01:06:13;;;;;;;2.47;1.37;;;;;;;;;;4989875;28;20261;-42
2022/09/04 01:08:45;;;;;;;1.70;1.60;;;;;;;;;;4988586;28;20242;-39
2022/09/04 01:11:15;;;;;;;2.23;1.60;;;;;;;;;;4982816;28;20229;-38
2022/09/04 01:13:45;;;;;;;3.83;1.43;;;;;;;;;;4987493;28;20212;-42
2022/09/04 01:16:16;;;;;;;5.40;1.40;;;;;;;;;;4985150;28;20209;-44
2022/09/04 01:18:48;;;;;;;10.13;1.13;;;;;;;;;;4989973;28;20224;-43
2022/09/04 01:21:30;;;;;;;0.93;0.90;;;;;;;;;;4990937;28;20212;-42
2022/09/04 01:24:03;;;;;;;5.90;2.00;;;;;;;;;;4982973;28;20549;-45
2022/09/04 01:26:36;;;;;;;5.43;1.63;;;;;;;;;;4990214;28;20212;-45
2022/09/04 01:29:09;;;;;;;2.53;1.90;;;;;;;;;;4987501;28;20204;-41
2022/09/04 01:31:41;;;;;;;8.17;1.90;;;;;;;;;;4983994;28;20217;-40
2022/09/04 01:34:13;;;;;;;3.27;1.90;;;;;;;;;;4989382;28;20200;-43
2022/09/04 01:36:44;;;;;;;11.50;2.20;;;;;;;;;;4988053;28;20207;-43
2022/09/04 01:39:11;;;;;;;2.13;1.93;;;;;;;;;;4989445;28;20231;-38
2022/09/04 01:41:42;;;;;;;8.83;2.30;;;;;;;;;;4989850;28;20201;-41
2022/09/04 01:44:10;;;;;;;2.33;1.70;;;;;;;;;;4984258;28;20227;-37
2022/09/04 01:46:41;;;;;;;6.10;2.20;;;;;;;;;;4985979;28;20213;-39
2022/09/04 01:49:14;;;;;;;13.37;2.20;;;;;;;;;;4990147;28;20209;-41
2022/09/04 01:51:45;;;;;;;3.50;1.43;;;;;;;;;;4989909;28;20239;-42
2022/09/04 01:54:18;;;;;;;1.57;1.47;;;;;;;;;;4976078;28;20235;-40
2022/09/04 01:56:51;;;;;;;5.07;1.60;;;;;;;;;;4983475;28;20674;-39
2022/09/04 01:59:24;;;;;;;1.47;1.33;;;;;;;;;;4986721;28;20204;-44
2022/09/04 02:01:54;;;;;;;2.63;1.23;;;;;;;;;;4986077;28;20713;-43
2022/09/04 02:04:24;;;;;;;1.53;1.33;;;;;;;;;;4989468;28;20216;-38
2022/09/04 02:06:54;;;;;;;1.20;1.20;;;;;;;;;;4989939;28;20230;-42
2022/09/04 02:09:29;;;;;;;1.30;1.20;;;;;;;;;;4984651;28;20209;-43
2022/09/04 02:12:03;;;;;;;2.90;1.33;;;;;;;;;;4989427;28;20224;-41
2022/09/04 02:14:35;;;;;;;4.57;1.40;;;;;;;;;;4974898;28;20215;-43
2022/09/04 02:17:09;;;;;;;5.10;1.33;;;;;;;;;;4986228;28;20236;-44
2022/09/04 02:19:47;;;;;;;5.63;1.30;;;;;;;;;;4990155;28;20211;-39
2022/09/04 02:22:19;;;;;;;1.97;1.00;;;;;;;;;;4987197;28;20207;-39
2022/09/04 02:24:51;;;;;;;1.37;1.20;;;;;;;;;;4983056;28;20238;-44
2022/09/04 02:27:22;;;;;;;6.67;1.37;;;;;;;;;;4989616;28;20232;-38
2022/09/04 02:29:53;;;;;;;4.10;1.20;;;;;;;;;;4980272;28;20205;-42
2022/09/04 02:32:22;;;;;;;5.87;1.10;;;;;;;;;;4985624;28;20223;-42
2022/09/04 02:34:52;;;;;;;1.60;1.30;;;;;;;;;;4989173;28;20315;-37
2022/09/04 02:37:22;;;;;;;3.67;1.10;;;;;;;;;;4989900;28;20239;-45
2022/09/04 02:39:57;;;;;;;1.13;1.03;;;;;;;;;;4984904;28;20225;-39
2022/09/04 02:42:31;;;;;;;6.67;1.20;;;;;;;;;;4985439;28;20291;-35
2022/09/04 02:45:01;;;;;;;0.90;0.90;;;;;;;;;;4976784;28;20213;-43
2022/09/04 02:47:32;;;;;;;1.17;1.07;;;;;;;;;;4988310;28;20228;-41
2022/09/04 02:50:02;;;;;;;1.73;1.60;;;;;;;;;;4992766;28;20208;-43
2022/09/04 02:52:38;;;;;;;2.47;2.27;;;;;;;;;;4993199;28;20228;-43
2022/09/04 02:55:11;;;;;;;0.90;0.90;;;;;;;;;;4975345;28;20209;-42
2022/09/04 02:57:46;;;;;;;1.20;1.10;;;;;;;;;;4986078;28;20287;-38
2022/09/04 03:00:16;;;;;;;2.60;1.10;;;;;;;;;;4987451;28;20238;-44
2022/09/04 03:02:46;;;;;;;2.03;1.17;;;;;;;;;;4992879;28;20200;-41
2022/09/04 03:05:19;;;;;;;1.37;1.10;;;;;;;;;;4992887;28;20197;-37
2022/09/04 03:07:49;;;;;;;0.87;0.87;;;;;;;;;;4989669;28;20228;-37
2022/09/04 03:10:18;;;;;;;1.93;1.10;;;;;;;;;;4991223;28;20208;-43
2022/09/04 03:12:51;;;;;;;2.50;1.00;;;;;;;;;;4992512;28;20231;-41
2022/09/04 03:15:20;;;;;;;2.50;1.07;;;;;;;;;;4978795;28;20237;-41
2022/09/04 03:17:57;;;;;;;1.53;0.87;;;;;;;;;;4990024;28;20232;-38
2022/09/04 03:20:26;;;;;;;2.80;1.20;;;;;;;;;;4992205;28;20223;-42
2022/09/04 03:22:57;;;;;;;0.97;0.97;;;;;;;;;;4989977;28;20204;-40
2022/09/04 03:25:35;;;;;;;1.00;1.00;;;;;;;;;;4988009;28;20209;-40
2022/09/04 03:28:04;;;;;;;0.97;0.97;;;;;;;;;;4992334;28;20229;-38
2022/09/04 03:30:36;;;;;;;0.93;0.90;;;;;;;;;;4985000;28;20216;-44
2022/09/04 03:33:06;;;;;;;0.93;0.93;;;;;;;;;;4991439;28;20236;-41
2022/09/04 03:35:36;;;;;;;2.10;0.87;;;;;;;;;;4992071;28;20207;-43
2022/09/04 03:38:15;;;;;;;0.70;0.70;;;;;;;;;;4981356;28;20248;-42
2022/09/04 03:40:43;;;;;;;1.50;0.90;;;;;;;;;;4991613;28;20223;-43
2022/09/04 03:43:29;;;;;;;2.30;0.90;;;;;;;;;;4992107;28;20204;-42
2022/09/04 03:46:00;;;;;;;1.00;1.00;;;;;;;;;;4987542;28;20303;-41
2022/09/04 03:48:31;;;;;;;4.27;0.80;;;;;;;;;;4984119;28;20216;-40
2022/09/04 03:51:01;;;;;;;0.90;0.90;;;;;;;;;;4991853;28;20200;-38
2022/09/04 03:53:31;;;;;;;1.03;0.70;;;;;;;;;;4988018;28;20235;-37
2022/09/04 03:56:08;;;;;;;0.70;0.70;;;;;;;;;;4988718;28;20212;-41
2022/09/04 03:58:44;;;;;;;0.70;0.70;;;;;;;;;;4991676;28;20234;-41
2022/09/04 04:01:16;;;;;;;0.90;0.90;;;;;;;;;;4983719;28;20200;-38
2022/09/04 04:03:52;;;;;;;0.83;0.83;;;;;;;;;;4993532;28;20204;-39
2022/09/04 04:06:24;;;;;;;3.47;1.17;;;;;;;;;;4993704;28;20244;-42
2022/09/04 04:09:18;;;;;;;1.20;1.10;;;;;;;;;;4987311;28;20235;-40
2022/09/04 04:11:52;;;;;;;1.37;1.27;;;;;;;;;;4967956;28;20208;-42
2022/09/04 04:14:29;;;;;;;0.80;0.80;;;;;;;;;;4988281;28;20213;-38
2022/09/04 04:17:01;;;;;;;2.20;1.00;;;;;;;;;;4991095;28;20235;-39
2022/09/04 04:19:37;;;;;;;4.20;1.10;;;;;;;;;;4991943;28;20205;-40
2022/09/04 04:22:10;;;;;;;2.00;1.00;;;;;;;;;;4986395;28;20205;-42
2022/09/04 04:24:46;;;;;;;3.37;1.27;;;;;;;;;;4984191;28;20204;-44
2022/09/04 04:27:20;;;;;;;3.50;1.13;;;;;;;;;;4990715;28;20224;-42
2022/09/04 04:29:56;;;;;;;5.40;0.90;;;;;;;;;;4982519;28;20208;-40
2022/09/04 04:32:31;;;;;;;2.33;0.90;;;;;;;;;;4990221;28;20223;-34
2022/09/04 04:35:07;;;;;;;1.10;1.10;;;;;;;;;;4990695;28;20203;-39
2022/09/04 04:40:07;;;;;;;5.03;0.70;;;;;;;;;;5010217;28;20223;-41
2022/09/04 04:42:36;;;;;;;0.87;0.73;;;;;;;;;;5007112;28;20199;-35
2022/09/04 04:48:17;;;;;;;0.80;0.80;;;;;;;;;;5013431;28;20238;-38
2022/09/04 04:50:48;;;;;;;0.70;0.70;;;;;;;;;;5014593;28;20189;-39
2022/09/04 04:53:17;;;;;;;2.90;0.70;;;;;;;;;;5005433;28;20242;-38
2022/09/04 04:55:49;;;;;;;0.80;0.80;;;;;;;;;;5002984;28;20208;-44
2022/09/04 04:58:22;;;;;;;0.83;0.83;;;;;;;;;;5014331;28;20251;-37
2022/09/04 05:00:54;;;;;;;4.30;0.67;;;;;;;;;;5006498;28;20262;-41
2022/09/04 05:03:24;;;;;;;0.60;0.60;;;;;;;;;;5014397;28;20195;-39
2022/09/04 05:05:54;;;;;;;1.13;0.60;;;;;;;;;;5014485;28;20217;-39
2022/09/04 05:08:27;;;;;;;0.70;0.70;;;;;;;;;;5003762;28;20228;-41
2022/09/04 05:10:56;;;;;;;4.93;0.90;;;;;;;;;;5009006;28;20203;-43
2022/09/04 05:13:27;;;;;;;2.33;0.90;;;;;;;;;;5014089;28;20226;-41
2022/09/04 05:16:02;;;;;;;0.83;0.83;;;;;;;;;;5010137;28;20207;-37
2022/09/04 05:18:32;;;;;;;4.97;0.90;;;;;;;;;;5013202;28;20219;-36
2022/09/04 05:21:00;;;;;;;0.80;0.80;;;;;;;;;;5013193;28;20214;-39
2022/09/04 05:23:32;;;;;;;0.77;0.70;;;;;;;;;;5009021;28;20200;-39
2022/09/04 05:26:06;;;;;;;2.70;0.77;;;;;;;;;;4993185;28;20204;-42
2022/09/04 05:28:41;;;;;;;3.80;0.80;;;;;;;;;;5012308;28;20219;-39
2022/09/04 05:31:14;;;;;;;5.03;0.80;;;;;;;;;;5008002;28;20215;-41
2022/09/04 05:33:45;;;;;;;3.33;0.80;;;;;;;;;;5002288;28;20216;-36
2022/09/04 05:36:17;;;;;;;4.37;0.77;;;;;;;;;;5010084;28;20238;-42
2022/09/04 05:38:47;;;;;;;0.80;0.80;;;;;;;;;;5012042;28;20231;-38
2022/09/04 05:41:19;;;;;;;3.70;0.67;;;;;;;;;;5012401;28;20481;-42
2022/09/04 05:44:01;;;;;;;4.73;0.80;;;;;;;;;;5005209;28;20204;-43
2022/09/04 05:46:39;;;;;;;3.07;0.90;;;;;;;;;;5001365;28;20261;-39
2022/09/04 05:49:13;;;;;;;0.80;0.80;;;;;;;;;;5007438;28;20196;-40
2022/09/04 05:51:50;;;;;;;5.33;1.00;;;;;;;;;;5003032;28;20203;-40
2022/09/04 05:54:25;;;;;;;1.57;0.80;;;;;;;;;;5006959;28;20207;-41
2022/09/04 05:57:02;;;;;;;5.90;1.00;;;;;;;;;;5006322;28;20199;-39
2022/09/04 05:59:48;;;;;;;3.23;0.90;;;;;;;;;;4997443;28;20200;-41
2022/09/04 06:02:29;;;;;;;1.80;1.00;;;;;;;;;;5005522;28;20212;-38
2022/09/04 06:05:03;;;;;;;3.80;0.87;;;;;;;;;;5011793;28;20206;-36
2022/09/04 06:07:34;;;;;;;9.33;1.03;;;;;;;;;;5012035;28;20223;-40
2022/09/04 06:10:05;;;;;;;0.60;0.60;;;;;;;;;;5003876;28;20221;-42
2022/09/04 06:12:51;;;;;;;2.27;0.90;;;;;;;;;;5011600;28;20204;-36
2022/09/04 06:15:23;;;;;;;1.27;0.80;;;;;;;;;;4993862;28;20199;-38
2022/09/04 06:18:03;;;;;;;3.07;0.90;;;;;;;;;;5009040;28;20223;-37
2022/09/04 06:20:38;;;;;;;5.63;1.07;;;;;;;;;;5012366;28;20199;-42
2022/09/04 06:23:21;;;;;;;1.07;0.90;;;;;;;;;;5010770;28;20209;-41
2022/09/04 06:26:05;;;;;;;1.53;0.80;;;;;;;;;;5009171;28;20207;-39
2022/09/04 06:28:49;;;;;;;0.87;0.70;;;;;;;;;;5002519;28;20228;-42
2022/09/04 06:31:33;;;;;;;3.60;0.90;;;;;;;;;;5007840;28;20462;-41
2022/09/04 06:34:06;;;;;;;2.70;0.67;;;;;;;;;;5014436;28;20216;-44
2022/09/04 06:36:42;;;;;;;0.70;0.70;;;;;;;;;;5014796;28;20206;-41
2022/09/04 06:39:23;;;;;;;4.67;0.90;;;;;;;;;;5006549;28;20216;-42
2022/09/04 06:41:57;;;;;;;1.50;1.30;;;;;;;;;;5014998;28;20197;-37
2022/09/04 06:44:31;;;;;;;5.90;1.30;;;;;;;;;;5010977;28;20195;-38
2022/09/04 06:47:05;;;;;;;0.80;0.80;;;;;;;;;;5009397;28;20257;-40
2022/09/04 06:49:37;;;;;;;0.87;0.87;;;;;;;;;;5013179;28;20193;-40
2022/09/04 06:52:12;;;;;;;0.90;0.90;;;;;;;;;;5013309;28;20203;-43
2022/09/04 06:54:47;;;;;;;1.37;1.07;;;;;;;;;;5004306;28;20709;-40
2022/09/04 06:57:27;;;;;;;1.23;1.23;;;;;;;;;;5014144;28;20223;-35
2022/09/04 07:00:02;;;;;;;1.10;1.10;;;;;;;;;;5006835;28;20232;-44
2022/09/04 07:02:36;;;;;;;2.80;1.30;;;;;;;;;;5009787;28;20563;-35
2022/09/04 07:05:10;;;;;;;3.17;1.30;;;;;;;;;;5005483;28;20212;-41
2022/09/04 07:07:42;;;;;;;1.20;1.10;;;;;;;;;;5006946;28;20220;-37
2022/09/04 07:10:12;;;;;;;1.53;1.47;;;;;;;;;;5005732;28;20215;-37
2022/09/04 07:12:54;;;;;;;1.50;1.40;;;;;;;;;;5015289;28;20212;-42
2022/09/04 07:15:35;;;;;;;2.67;1.60;;;;;;;;;;5008579;28;20236;-33
2022/09/04 07:18:07;;;;;;;1.63;1.40;;;;;;;;;;5010177;28;20238;-39
2022/09/04 07:20:38;;;;;;;1.20;1.10;;;;;;;;;;5011657;28;20202;-37
2022/09/04 07:23:16;;;;;;;1.52;1.27;;;;;;;;;;5006412;28;20669;-37
2022/09/04 07:25:48;;;;;;;1.40;1.40;;;;;;;;;;5013055;28;20207;-44
2022/09/04 07:28:23;;;;;;;1.60;1.50;;;;;;;;;;5014367;28;20223;-40
2022/09/04 07:30:53;;;;;;;1.60;1.50;;;;;;;;;;5003180;28;20202;-42
2022/09/04 07:33:24;;;;;;;1.92;1.63;;;;;;;;;;5013805;28;20273;-37
2022/09/04 07:35:57;;;;;;;2.00;1.70;;;;;;;;;;5014013;28;20657;-40
2022/09/04 07:38:29;;;;;;;2.57;1.43;;;;;;;;;;5014023;28;20231;-39
2022/09/04 07:41:00;;;;;;;2.60;1.70;;;;;;;;;;4998879;28;20200;-38
2022/09/04 07:43:31;;;;;;;1.50;1.40;;;;;;;;;;5014184;28;20195;-39
2022/09/04 07:46:02;;;;;;;1.52;1.42;;;;;;;;;;5007698;28;20209;-40
2022/09/04 07:48:31;;;;;;;1.70;1.60;;;;;;;;;;5006085;28;20242;-36
2022/09/04 07:51:09;;;;;;;1.38;1.33;;;;;;;;;;5014586;28;20199;-41
2022/09/04 07:53:55;;;;;;;1.40;1.33;;;;;;;;;;5003317;28;20699;-41
2022/09/04 07:56:25;;;;;;;1.60;1.50;;;;;;;;;;5013220;28;20202;-39
2022/09/04 07:59:00;;;;;;;1.70;1.60;;;;;;;;;;5012127;28;20694;-35
2022/09/04 08:01:41;;;;;;;2.38;1.65;;;;;;;;;;5006495;28;20199;-37
2022/09/04 08:04:20;;;;;;;1.23;1.23;;;;;;;;;;5014152;28;20194;-41
2022/09/04 08:06:49;;;;;;;1.60;1.50;;;;;;;;;;5013635;28;20203;-39
2022/09/04 08:09:32;;;;;;;1.53;1.43;;;;;;;;;;5003056;28;20215;-41
2022/09/04 08:12:20;;;;;;;2.40;1.37;;;;;;;;;;5008171;28;20426;-39
2022/09/04 08:14:54;;;;;;;1.60;1.50;;;;;;;;;;4970183;28;20235;-37
2022/09/04 08:17:30;;;;;;;2.00;1.80;;;;;;;;;;5011734;28;20735;-42
2022/09/04 08:20:02;;;;;;;1.80;1.70;;;;;;;;;;5013587;28;20191;-39
2022/09/04 08:22:36;;;;;;;1.67;1.57;;;;;;;;;;5008765;28;20208;-37
2022/09/04 08:25:08;;;;;;;2.00;1.90;;;;;;;;;;5005658;28;20203;-35
2022/09/04 08:27:43;;;;;;;2.47;1.60;;;;;;;;;;5013093;28;20222;-41
2022/09/04 08:30:12;;;;;;;1.48;1.30;;;;;;;;;;5009807;28;20243;-42
2022/09/04 08:32:52;;;;;;;1.77;1.67;;;;;;;;;;5013329;28;20214;-40
2022/09/04 08:35:22;;;;;;;2.33;1.70;;;;;;;;;;5012500;28;20218;-41
2022/09/04 08:37:56;;;;;;;2.08;1.70;;;;;;;;;;5004030;28;20252;-41
2022/09/04 08:40:38;;;;;;;1.83;1.63;;;;;;;;;;5009785;28;20206;-41
2022/09/04 08:43:20;;;;;;;2.65;1.83;;;;;;;;;;5010843;28;20203;-39
2022/09/04 08:46:15;;;;;;;1.60;1.40;;;;;;;;;;4999921;28;20210;-44
2022/09/04 08:49:10;;;;;;;1.70;1.55;;;;;;;;;;5006611;28;20223;-39
2022/09/04 08:51:55;;;;;;;3.15;1.80;;;;;;;;;;5006092;28;20220;-43
2022/09/04 08:54:43;;;;;;;1.70;1.60;;;;;;;;;;5006084;28;20241;-40
2022/09/04 08:57:22;;;;;;;1.90;1.80;;;;;;;;;;5013286;28;20234;-40
2022/09/04 08:59:56;;;;;;;2.88;1.70;;;;;;;;;;5004062;28;20272;-35
2022/09/04 09:02:35;;;;;;;2.65;1.92;;;;;;;;;;5012400;28;20201;-40
2022/09/04 09:05:29;;;;;;;3.72;1.67;;;;;;;;;;5012722;28;20736;-39
2022/09/04 09:08:14;;;;;;;2.20;2.10;;;;;;;;;;5011854;28;20228;-42
2022/09/04 09:11:00;;;;;;;2.25;1.80;;;;;;;;;;5008026;28;20254;-43
2022/09/04 09:13:42;;;;;;;4.22;2.30;;;;;;;;;;5012845;28;20207;-36
2022/09/04 09:16:19;;;;;;;1.60;1.50;;;;;;;;;;5006345;28;20547;-37
2022/09/04 09:18:58;;;;;;;2.17;1.45;;;;;;;;;;5012741;28;20228;-43
2022/09/04 09:21:33;;;;;;;1.90;1.80;;;;;;;;;;5013227;28;20196;-36
2022/09/04 09:24:12;;;;;;;2.47;2.00;;;;;;;;;;5000286;28;20208;-37
2022/09/04 09:26:51;;;;;;;2.05;1.77;;;;;;;;;;5005695;28;20252;-40
2022/09/04 09:29:37;;;;;;;4.22;1.60;;;;;;;;;;5010456;28;20268;-41
2022/09/04 09:32:24;;;;;;;1.52;1.42;;;;;;;;;;5012335;28;20204;-35
2022/09/04 09:35:07;;;;;;;1.55;1.45;;;;;;;;;;5012590;28;20223;-36
2022/09/04 09:37:55;;;;;;;1.77;1.48;;;;;;;;;;4974851;28;20223;-34
2022/09/04 09:40:31;;;;;;;2.45;1.50;;;;;;;;;;5006853;28;20220;-40
2022/09/04 09:43:17;;;;;;;1.90;1.10;;;;;;;;;;5013014;28;20190;-41
2022/09/04 09:46:00;;;;;;;2.20;1.00;;;;;;;;;;5005983;28;20200;-38
2022/09/04 09:48:45;;;;;;;1.63;1.52;;;;;;;;;;5012381;28;20213;-39
2022/09/04 09:51:36;;;;;;;1.52;1.27;;;;;;;;;;4993055;28;20269;-38
2022/09/04 09:54:13;;;;;;;2.45;1.35;;;;;;;;;;4995751;28;20218;-38
2022/09/04 09:57:00;;;;;;;1.30;1.20;;;;;;;;;;5012882;28;20207;-42
2022/09/04 09:59:37;;;;;;;1.45;1.35;;;;;;;;;;5013613;28;20205;-38
2022/09/04 10:02:22;;;;;;;1.83;1.42;;;;;;;;;;5016057;28;20269;-39
2022/09/04 10:05:12;;;;;;;2.33;1.20;;;;;;;;;;5016370;28;20225;-43
2022/09/04 10:08:03;;;;;;;1.40;1.30;;;;;;;;;;5016365;28;20310;-39
2022/09/04 10:10:53;;;;;;;2.45;1.20;;;;;;;;;;5004894;28;20211;-40
2022/09/04 10:13:30;;;;;;;1.50;1.40;;;;;;;;;;5011033;28;20233;-41
2022/09/04 10:16:17;;;;;;;1.35;1.25;;;;;;;;;;5004592;28;20227;-42
2022/09/04 10:19:05;;;;;;;1.65;1.45;;;;;;;;;;5006699;28;20230;-42
2022/09/04 10:21:59;;;;;;;2.80;1.45;;;;;;;;;;5016638;28;20200;-40
2022/09/04 10:24:37;;;;;;;2.35;1.20;;;;;;;;;;5012861;28;20195;-41
2022/09/04 10:27:26;;;;;;;1.85;1.50;;;;;;;;;;5016181;28;20231;-33
2022/09/04 10:30:04;;;;;;;1.85;1.35;;;;;;;;;;5007837;28;20204;-33
2022/09/04 10:32:41;;;;;;;1.38;1.27;;;;;;;;;;5008083;28;20209;-41
2022/09/04 10:35:24;;;;;;;1.53;1.27;;;;;;;;;;5015749;28;20239;-43
2022/09/04 10:40:36;;;;;;;1.70;1.30;;;;;;;;;;4962926;28;20220;-37
2022/09/04 10:43:14;;;;;;;1.10;1.00;;;;;;;;;;4957459;28;20217;-38
2022/09/04 10:45:46;;;;;;;1.57;1.10;;;;;;;;;;4965224;28;20207;-35
2022/09/04 10:48:32;;;;;;;2.22;1.10;;;;;;;;;;4975713;28;20232;-38
2022/09/04 10:51:27;;;;;;;0.80;0.80;;;;;;;;;;4963258;28;20209;-38
2022/09/04 10:54:13;;;;;;;1.20;1.00;;;;;;;;;;4962686;28;20213;-36
2022/09/04 10:56:49;;;;;;;1.27;1.13;;;;;;;;;;4975553;28;20211;-37
2022/09/04 10:59:26;;;;;;;1.30;1.20;;;;;;;;;;4973455;28;20204;-41
2022/09/04 11:02:08;;;;;;;1.23;1.20;;;;;;;;;;4974665;28;20208;-36
2022/09/04 11:05:00;;;;;;;2.17;0.90;;;;;;;;;;4970991;28;20201;-41
2022/09/04 11:07:37;;;;;;;1.17;1.10;;;;;;;;;;4964335;28;20232;-43
2022/09/04 11:10:16;;;;;;;2.05;1.20;;;;;;;;;;4978038;28;20231;-34
2022/09/04 11:12:54;;;;;;;1.30;1.20;;;;;;;;;;4981909;28;20199;-40
2022/09/04 11:15:54;;;;;;;1.20;1.20;;;;;;;;;;4973970;28;20306;-42
2022/09/04 11:18:44;;;;;;;1.55;1.00;;;;;;;;;;4974664;28;20235;-37
2022/09/04 11:21:28;;;;;;;2.78;1.20;;;;;;;;;;4961717;28;20212;-39
2022/09/04 11:24:20;;;;;;;1.10;1.00;;;;;;;;;;4970993;28;20208;-39
2022/09/04 11:27:08;;;;;;;1.67;1.15;;;;;;;;;;4973230;28;20204;-38
2022/09/04 11:29:54;;;;;;;1.40;0.95;;;;;;;;;;4973168;28;20204;-39
2022/09/04 11:32:40;;;;;;;1.90;1.10;;;;;;;;;;4974461;28;20204;-41
2022/09/04 11:35:13;;;;;;;1.27;1.13;;;;;;;;;;4966677;28;20221;-41
2022/09/04 11:37:58;;;;;;;2.03;1.17;;;;;;;;;;4967795;28;20283;-40
2022/09/04 11:40:33;;;;;;;1.08;0.95;;;;;;;;;;4973287;28;20201;-35
2022/09/04 11:43:19;;;;;;;0.90;0.90;;;;;;;;;;4975208;28;20207;-36
2022/09/04 11:45:57;;;;;;;2.70;1.10;;;;;;;;;;4963563;28;20211;-37
2022/09/04 11:48:41;;;;;;;1.25;1.15;;;;;;;;;;4974920;28;20216;-42
2022/09/04 11:51:18;;;;;;;1.63;1.00;;;;;;;;;;4960681;28;20209;-40
2022/09/04 11:53:59;;;;;;;0.90;0.90;;;;;;;;;;4973605;28;20208;-38
2022/09/04 11:56:34;;;;;;;1.33;0.98;;;;;;;;;;4974236;28;20208;-38
2022/09/04 11:59:15;;;;;;;1.30;1.20;;;;;;;;;;4975064;28;20199;-41
2022/09/04 12:01:52;;;;;;;0.77;0.77;;;;;;;;;;4975593;28;20208;-42
2022/09/04 12:04:30;;;;;;;1.27;1.17;;;;;;;;;;4974738;28;20193;-40
2022/09/04 12:07:07;;;;;;;0.95;0.95;;;;;;;;;;4975108;28;20263;-40
2022/09/04 12:09:49;;;;;;;1.02;0.98;;;;;;;;;;4973394;28;20216;-40
2022/09/04 12:12:40;;;;;;;3.45;1.10;;;;;;;;;;4974439;28;20283;-42
2022/09/04 12:15:28;;;;;;;0.80;0.80;;;;;;;;;;4953036;28;20221;-37
2022/09/04 12:18:17;;;;;;;1.50;1.40;;;;;;;;;;4941945;28;20230;-36
2022/09/04 12:20:54;;;;;;;1.30;1.20;;;;;;;;;;4968767;28;20201;-39
2022/09/04 12:23:31;;;;;;;1.10;1.00;;;;;;;;;;4974814;28;20193;-42
2022/09/04 12:26:17;;;;;;;1.10;1.00;;;;;;;;;;4973812;28;20205;-40
2022/09/04 12:29:16;;;;;;;2.45;1.10;;;;;;;;;;4966891;28;20228;-40
2022/09/04 12:31:56;;;;;;;0.80;0.80;;;;;;;;;;4971501;28;20205;-39
2022/09/04 12:34:35;;;;;;;1.02;1.00;;;;;;;;;;4971198;28;20203;-39
2022/09/04 12:37:20;;;;;;;1.08;0.98;;;;;;;;;;4955470;29;20233;-38
2022/09/04 12:40:05;;;;;;;1.60;0.90;;;;;;;;;;4967266;28;20216;-38
2022/09/04 12:42:33;;;;;;;1.02;0.93;;;;;;;;;;4966647;28;20202;-37
2022/09/04 12:45:09;;;;;;;1.30;1.17;;;;;;;;;;4972017;28;20205;-40
2022/09/04 12:47:44;;;;;;;1.05;1.05;;;;;;;;;;4975705;28;20228;-33
2022/09/04 12:50:20;;;;;;;0.80;0.80;;;;;;;;;;4974600;28;20278;-38
2022/09/04 12:52:56;;;;;;;1.88;1.15;;;;;;;;;;4974024;28;20309;-39
2022/09/04 12:55:28;;;;;;;0.90;0.90;;;;;;;;;;4970222;28;20223;-35
2022/09/04 12:58:02;;;;;;;1.50;1.40;;;;;;;;;;4973868;28;20270;-37
2022/09/04 13:00:39;;;;;;;0.90;0.90;;;;;;;;;;4971756;28;20212;-42
2022/09/04 13:03:10;;;;;;;1.85;1.17;;;;;;;;;;4973122;28;20235;-40
2022/09/04 13:05:44;;;;;;;1.85;0.85;;;;;;;;;;4955967;28;20212;-36
2022/09/04 13:08:17;;;;;;;0.73;0.73;;;;;;;;;;4966782;28;20239;-37
2022/09/04 13:10:49;;;;;;;2.00;1.10;;;;;;;;;;4973881;28;20212;-39
2022/09/04 13:13:21;;;;;;;0.80;0.80;;;;;;;;;;4972855;28;20201;-37
2022/09/04 13:15:56;;;;;;;1.25;1.15;;;;;;;;;;4969846;28;20212;-40
2022/09/04 13:18:33;;;;;;;1.02;1.02;;;;;;;;;;4971240;28;20223;-36
2022/09/04 13:21:14;;;;;;;1.38;1.10;;;;;;;;;;4973272;28;20193;-38
2022/09/04 13:23:56;;;;;;;1.15;1.05;;;;;;;;;;4970485;28;20812;-40
2022/09/04 13:26:38;;;;;;;0.93;0.93;;;;;;;;;;4972557;28;20203;-40
2022/09/04 13:29:14;;;;;;;2.05;0.90;;;;;;;;;;4969012;28;20216;-34
2022/09/04 13:31:55;;;;;;;1.67;1.05;;;;;;;;;;4969216;28;20207;-40
2022/09/04 13:34:27;;;;;;;1.60;0.88;;;;;;;;;;4960551;28;20273;-39
2022/09/04 13:37:02;;;;;;;1.00;1.00;;;;;;;;;;4954075;28;20221;-39
2022/09/04 13:39:38;;;;;;;1.20;1.10;;;;;;;;;;4969208;28;20401;-41
2022/09/04 13:42:26;;;;;;;0.77;0.77;;;;;;;;;;4973335;28;20211;-41
2022/09/04 13:45:07;;;;;;;0.88;0.88;;;;;;;;;;4938144;28;20220;-33
2022/09/04 13:47:42;;;;;;;1.10;1.10;;;;;;;;;;4972759;28;20224;-35
2022/09/04 13:50:16;;;;;;;1.42;1.00;;;;;;;;;;4973542;28;20200;-33
2022/09/04 13:52:45;;;;;;;1.83;0.93;;;;;;;;;;4973703;28;20215;-38
2022/09/04 13:55:29;;;;;;;1.58;1.00;;;;;;;;;;4972760;28;20318;-41
2022/09/04 13:58:00;;;;;;;1.05;0.95;;;;;;;;;;4973107;28;20217;-35
2022/09/04 14:00:29;;;;;;;1.70;1.00;;;;;;;;;;4971769;28;20243;-34
2022/09/04 14:02:59;;;;;;;1.90;1.08;;;;;;;;;;4969043;28;20209;-42
2022/09/04 14:05:29;;;;;;;0.90;0.90;;;;;;;;;;4971555;28;20204;-42
2022/09/04 14:08:02;;;;;;;1.10;1.00;;;;;;;;;;4973720;28;20228;-42
2022/09/04 14:10:39;;;;;;;1.00;1.00;;;;;;;;;;4972603;28;20431;-39
2022/09/04 14:13:12;;;;;;;0.80;0.80;;;;;;;;;;4974043;28;20206;-39
2022/09/04 14:16:00;;;;;;;1.10;1.00;;;;;;;;;;4964524;28;20228;-41
2022/09/04 14:18:37;;;;;;;1.20;1.10;;;;;;;;;;4973245;28;20236;-40
2022/09/04 14:21:08;;;;;;;0.98;0.90;;;;;;;;;;4975103;28;20283;-38
2022/09/04 14:23:42;;;;;;;1.48;1.02;;;;;;;;;;4973572;28;20201;-40
2022/09/04 14:26:15;;;;;;;1.40;1.30;;;;;;;;;;4973888;28;20201;-36
2022/09/04 14:28:47;;;;;;;1.00;1.00;;;;;;;;;;4972499;28;20236;-40
2022/09/04 14:31:18;;;;;;;2.78;1.00;;;;;;;;;;4971713;28;20201;-40
2022/09/04 14:33:52;;;;;;;0.90;0.90;;;;;;;;;;4966157;28;20473;-41
2022/09/04 14:36:24;;;;;;;1.20;0.80;;;;;;;;;;4973256;28;20224;-39
2022/09/04 14:39:02;;;;;;;1.10;1.10;;;;;;;;;;4971560;28;20242;-40
2022/09/04 14:41:36;;;;;;;1.05;0.93;;;;;;;;;;4972904;28;20215;-35
2022/09/04 14:44:11;;;;;;;0.90;0.90;;;;;;;;;;4975462;28;20203;-37
2022/09/04 14:46:44;;;;;;;1.00;1.00;;;;;;;;;;4973104;28;20291;-39
2022/09/04 14:49:15;;;;;;;3.33;1.20;;;;;;;;;;4968981;28;20269;-36
2022/09/04 14:51:45;;;;;;;1.13;1.02;;;;;;;;;;4976348;28;20286;-36
2022/09/04 14:54:16;;;;;;;1.10;1.00;;;;;;;;;;4974839;28;20213;-42
2022/09/04 14:56:47;;;;;;;1.00;1.00;;;;;;;;;;4976021;28;20235;-43
2022/09/04 14:59:19;;;;;;;1.85;1.15;;;;;;;;;;4974204;28;20204;-40
2022/09/04 15:02:02;;;;;;;2.13;0.98;;;;;;;;;;4975554;28;20268;-39
2022/09/04 15:04:33;;;;;;;0.93;0.90;;;;;;;;;;4975406;28;20203;-36
2022/09/04 15:07:04;;;;;;;4.78;0.90;;;;;;;;;;4974939;28;20227;-39
2022/09/04 15:09:35;;;;;;;1.10;1.00;;;;;;;;;;4975543;28;20201;-39
2022/09/04 15:12:16;;;;;;;1.20;1.10;;;;;;;;;;4974558;28;20299;-40
2022/09/04 15:14:47;;;;;;;1.75;1.65;;;;;;;;;;4974117;28;20210;-39
2022/09/04 15:17:23;;;;;;;1.30;1.30;;;;;;;;;;4975224;28;20275;-38
2022/09/04 15:19:54;;;;;;;1.10;1.10;;;;;;;;;;4975982;28;20280;-38
2022/09/04 15:22:24;;;;;;;1.02;1.02;;;;;;;;;;4973866;28;20206;-37
2022/09/04 15:24:57;;;;;;;1.33;1.23;;;;;;;;;;4972448;28;20295;-41
2022/09/04 15:27:31;;;;;;;2.20;1.00;;;;;;;;;;4975356;28;20216;-35
2022/09/04 15:30:05;;;;;;;1.45;1.35;;;;;;;;;;4974132;28;20216;-38
2022/09/04 15:32:35;;;;;;;1.15;1.00;;;;;;;;;;4973273;28;20279;-37
2022/09/04 15:35:13;;;;;;;3.85;1.02;;;;;;;;;;4975356;28;20220;-34
2022/09/04 15:37:41;;;;;;;1.52;1.13;;;;;;;;;;4975991;28;20236;-42
2022/09/04 15:40:10;;;;;;;1.13;1.00;;;;;;;;;;4969415;28;20316;-37
2022/09/04 15:42:44;;;;;;;0.95;0.95;;;;;;;;;;4967629;28;20212;-36
2022/09/04 15:45:18;;;;;;;1.50;1.00;;;;;;;;;;4971398;28;20215;-38